Latest Weather Observations for Bundaberg

IDQ60801

Issued at 1:02 pm EST Friday 23 June 2017 (issued every 30 minutes, with the page automatically refreshed every 10 minutes)

About weather observations | Map of weather stations | Latest weather observations for QLD | Other Formats
Station Details ID: 039128 Name: BUNDABERG AERO Lat: -24.91 Lon: 152.32 Height: 30.82 m
Data from the previous 72 hours. | See also: Recent months at Bundaberg
Date/Time
EST
Temp
°C
App
Temp
°C
Dew
Point
°C
Rel
Hum
%
Delta-T
°C
Wind Press
QNH
hPa
Press
MSL
hPa
Rain since
9am
mm
Dir  Spd
km/h
Gust
km/h
Spd
kts
Gust
kts
23/01:00pm 23.7 22.2 10.7 44 7.2 SE 9 17 5 9 1019.8 1019.8 0.0
23/12:30pm 22.8 21.1 11.2 48 6.4 SE 11 17 6 9 1020.3 1020.3 0.0
23/12:00pm 22.4 21.2 11.5 50 6.1 S 9 17 5 9 1020.9 1020.9 0.0
23/11:30am 22.1 20.6 11.8 52 5.8 SE 11 19 6 10 1021.4 1021.4 0.0
23/11:00am 21.9 20.4 13.0 57 5.1 S 13 19 7 10 1022.0 1022.0 0.0
23/10:30am 20.8 18.8 12.8 60 4.5 SSW 15 19 8 10 1022.7 1022.7 0.0
23/10:00am 19.8 18.0 12.1 61 4.3 S 13 17 7 9 1023.1 1023.1 0.0
23/09:30am 18.6 16.6 11.4 63 3.9 S 13 19 7 10 1023.2 1023.2 0.0
23/09:00am 17.3 15.5 12.2 72 2.8 SSW 13 17 7 9 1023.0 1023.0 0.0
23/08:30am 15.7 14.1 11.5 76 2.3 SSW 11 17 6 9 1022.7 1022.7 0.0
23/08:00am 14.4 12.6 10.8 79 1.9 SSW 11 15 6 8 1022.4 1022.4 0.0
23/07:30am 12.9 11.4 10.6 86 1.2 SW 9 11 5 6 1022.1 1022.1 0.0
23/07:00am 11.8 10.1 9.9 88 1.0 SW 9 11 5 6 1022.0 1022.0 0.0
23/06:30am 11.8 9.7 9.7 87 1.1 SSW 11 13 6 7 1021.8 1021.8 0.0
23/06:00am 11.9 9.9 10.0 88 1.0 SW 11 15 6 8 1021.7 1021.7 0.0
23/05:30am 11.5 9.5 10.1 91 0.7 SSW 11 13 6 7 1021.6 1021.6 0.0
23/05:00am 11.1 9.4 9.7 91 0.7 SSW 9 9 5 5 1021.4 1021.4 0.0
23/04:30am 12.3 10.3 10.0 86 1.2 SSW 11 13 6 7 1021.4 1021.4 0.0
23/04:00am 12.5 10.6 10.4 87 1.1 SSW 11 13 6 7 1021.4 1021.4 0.0
23/03:30am 12.7 10.8 10.6 87 1.1 SSW 11 15 6 8 1021.4 1021.4 0.0
23/03:00am 12.7 10.4 10.6 87 1.1 S 13 15 7 8 1021.5 1021.5 0.0
23/02:30am 12.4 10.5 10.5 88 1.0 S 11 13 6 7 1021.7 1021.7 0.0
23/02:00am 12.7 10.9 10.8 88 1.0 S 11 13 6 7 1021.8 1021.8 0.0
23/01:30am 13.0 11.7 11.1 88 1.0 S 9 13 5 7 1022.2 1022.2 0.0
23/01:00am 13.2 11.5 11.3 88 1.0 S 11 13 6 7 1022.4 1022.4 0.0
23/12:30am 13.6 12.0 11.7 88 1.0 S 11 15 6 8 1022.4 1022.4 0.0
23/12:00am 13.7 12.2 11.8 88 1.0 S 11 13 6 7 1022.7 1022.7 0.0
 
Date/Time
EST
Temp
°C
App
Temp
°C
Dew
Point
°C
Rel
Hum
%
Delta-T
°C
Wind Press
QNH
hPa
Press
MSL
hPa
Rain since
9am
mm
Dir  Spd
km/h
Gust
km/h
Spd
kts
Gust
kts
22/11:30pm 14.0 12.5 11.9 87 1.1 S 11 17 6 9 1023.0 1023.0 0.0
22/11:00pm 14.4 13.1 12.4 88 1.1 S 11 17 6 9 1023.2 1023.2 0.0
22/10:30pm 14.3 13.3 12.3 88 1.1 S 9 13 5 7 1023.4 1023.4 0.0
22/10:00pm 14.7 13.8 12.6 87 1.1 S 9 13 5 7 1023.4 1023.4 0.0
22/09:30pm 15.1 14.3 12.8 86 1.3 S 9 13 5 7 1023.4 1023.4 0.0
22/09:00pm 15.0 14.1 12.7 86 1.3 S 9 13 5 7 1023.5 1023.5 0.0
22/08:30pm 14.9 14.3 12.4 85 1.4 SSE 7 11 4 6 1023.5 1023.5 0.0
22/08:00pm 15.2 14.4 12.9 86 1.3 SE 9 13 5 7 1023.3 1023.3 0.0
22/07:30pm 15.6 14.9 13.3 86 1.3 SSE 9 11 5 6 1023.0 1023.0 0.0
22/07:00pm 15.7 15.1 13.5 87 1.2 SE 9 13 5 7 1022.9 1022.9 0.0
22/06:30pm 16.8 16.1 14.3 85 1.4 SE 11 11 6 6 1022.7 1022.7 0.0
22/06:00pm 17.0 16.2 14.1 83 1.6 ESE 11 13 6 7 1022.4 1022.4 0.0
22/05:30pm 17.8 16.9 13.7 77 2.3 E 11 15 6 8 1022.1 1022.1 0.0
22/05:00pm 19.2 17.5 13.6 70 3.2 ESE 15 19 8 10 1021.8 1021.8 0.0
22/04:30pm 20.6 18.4 13.3 63 4.2 E 17 24 9 13 1021.6 1021.6 0.0
22/04:00pm 21.2 19.1 12.3 57 5.0 ESE 15 19 8 10 1021.4 1021.4 0.0
22/03:30pm 22.2 19.1 12.2 53 5.7 ESE 20 28 11 15 1021.4 1021.4 0.0
22/03:00pm 21.8 18.0 12.4 55 5.3 ESE 24 35 13 19 1021.4 1021.4 0.0
22/02:30pm 21.5 18.8 13.4 60 4.7 ESE 20 28 11 15 1021.5 1021.5 0.0
22/02:00pm 22.7 20.2 13.5 56 5.3 ESE 19 26 10 14 1021.5 1021.5 0.0
22/01:30pm 22.1 19.5 13.2 57 5.1 SE 19 24 10 13 1021.8 1021.8 0.0
22/01:00pm 22.7 20.6 13.7 56 5.2 ESE 17 26 9 14 1022.2 1022.2 0.0
22/12:30pm 22.0 19.6 12.8 56 5.3 SSE 17 24 9 13 1022.7 1022.7 0.0
22/12:00pm 21.9 18.9 13.8 60 4.7 SE 22 28 12 15 1023.2 1023.2 0.0
22/11:30am 21.3 17.7 13.0 59 4.7 SE 24 32 13 17 1023.7 1023.7 0.0
22/11:00am 21.4 18.6 13.1 59 4.7 SE 20 30 11 16 1024.1 1024.1 0.0
22/10:30am 20.7 18.2 12.4 59 4.7 S 17 24 9 13 1024.4 1024.4 0.0
22/10:00am 20.2 17.7 12.2 60 4.5 SSE 17 22 9 12 1024.6 1024.6 0.0
22/09:30am 19.1 16.7 11.4 61 4.2 S 15 22 8 12 1024.9 1024.9 0.0
22/09:00am 18.4 15.6 11.2 63 3.9 S 17 24 9 13 1025.0 1025.0 0.0
22/08:30am 16.6 14.4 10.9 69 3.1 S 13 19 7 10 1024.7 1024.7 0.0
22/08:00am 16.5 14.8 11.2 71 2.8 SSW 11 19 6 10 1024.2 1024.2 0.0
22/07:30am 14.3 13.4 10.7 79 1.9 SSW 6 9 3 5 1024.0 1024.0 0.0
22/07:00am 13.4 12.2 10.2 81 1.7 SW 7 11 4 6 1023.7 1023.7 0.0
22/06:30am 13.1 11.4 9.9 81 1.6 SW 9 11 5 6 1023.6 1023.6 0.0
22/06:00am 13.0 12.0 10.9 87 1.1 WSW 7 9 4 5 1023.3 1023.3 0.0
22/05:30am 12.9 11.7 10.3 84 1.3 WSW 7 9 4 5 1023.1 1023.1 0.0
22/05:00am 13.4 12.8 10.4 82 1.6 SW 4 6 2 3 1022.6 1022.6 0.0
22/04:30am 13.9 12.2 9.9 77 2.1 S 9 11 5 6 1022.2 1022.2 0.0
22/04:00am 13.6 11.8 9.5 76 2.1 SSW 9 13 5 7 1022.1 1022.1 0.0
22/03:30am 13.1 11.2 9.2 77 2.0 SSW 9 11 5 6 1022.2 1022.2 0.0
22/03:00am 13.1 11.3 9.4 78 1.9 SSW 9 13 5 7 1022.1 1022.1 0.0
22/02:30am 12.9 11.0 9.2 78 1.9 SSW 9 11 5 6 1022.0 1022.0 0.0
22/02:00am 13.2 11.4 9.5 78 1.9 S 9 11 5 6 1022.2 1022.2 0.0
22/01:30am 13.4 11.3 9.8 79 1.9 S 11 15 6 8 1022.3 1022.3 0.0
22/01:00am 12.8 11.0 9.6 81 1.6 SSW 9 11 5 6 1022.5 1022.5 0.0
22/12:30am 13.3 11.2 9.7 79 1.8 S 11 15 6 8 1022.8 1022.8 0.0
22/12:00am 13.0 11.2 9.4 79 1.8 SSW 9 11 5 6 1023.1 1023.1 0.0
 
Date/Time
EST
Temp
°C
App
Temp
°C
Dew
Point
°C
Rel
Hum
%
Delta-T
°C
Wind Press
QNH
hPa
Press
MSL
hPa
Rain since
9am
mm
Dir  Spd
km/h
Gust
km/h
Spd
kts
Gust
kts
21/11:30pm 13.1 11.3 9.5 79 1.8 SSW 9 11 5 6 1023.5 1023.5 0.0
21/11:00pm 13.7 11.6 9.7 77 2.0 S 11 15 6 8 1023.8 1023.8 0.0
21/10:30pm 13.9 11.5 9.9 77 2.1 S 13 19 7 10 1024.1 1024.1 0.0
21/10:00pm 13.9 11.8 9.7 76 2.2 SSW 11 15 6 8 1024.0 1024.0 0.0
21/09:30pm 14.3 12.6 9.7 74 2.4 S 9 13 5 7 1023.6 1023.6 0.0
21/09:00pm 14.3 12.5 9.5 73 2.5 SSE 9 13 5 7 1023.3 1023.3 0.0
21/08:30pm 14.6 13.0 10.2 75 2.3 SSE 9 13 5 7 1023.2 1023.2 0.0
21/08:00pm 15.1 14.0 10.5 74 2.4 SSE 7 9 4 5 1023.1 1023.1 0.0
21/07:30pm 14.4 12.5 10.6 78 2.0 SE 11 13 6 7 1022.8 1022.8 0.0
21/07:00pm 14.9 13.2 11.3 79 1.9 ESE 11 13 6 7 1022.5 1022.5 0.0
21/06:30pm 15.4 14.2 10.4 72 2.6 E 7 7 4 4 1022.2 1022.2 0.0
21/06:00pm 17.0 16.0 10.4 65 3.5 E 6 7 3 4 1021.9 1021.9 0.0
21/05:30pm 17.5 17.5 9.9 61 4.0 CALM 0 0 0 0 1021.6 1021.6 0.0
21/05:00pm 18.4 16.7 10.0 58 4.5 E 9 11 5 6 1021.3 1021.3 0.0
21/04:30pm 20.6 18.0 9.5 49 5.9 ESE 13 15 7 8 1021.0 1021.0 0.0
21/04:00pm 22.1 18.7 5.9 35 8.1 S 13 20 7 11 1020.9 1020.9 0.0
21/03:30pm 22.7 19.2 5.6 33 8.6 S 13 17 7 9 1020.5 1020.5 0.0
21/03:00pm 22.7 19.2 5.6 33 8.6 SSW 13 20 7 11 1020.4 1020.4 0.0
21/02:30pm 22.9 19.5 5.8 33 8.6 SSW 13 22 7 12 1020.5 1020.5 0.0
21/02:00pm 22.8 19.0 5.7 33 8.6 SSE 15 20 8 11 1020.6 1020.6 0.0
21/01:30pm 22.3 18.2 6.1 35 8.2 S 17 22 9 12 1020.8 1020.8 0.0
21/01:00pm 22.5 18.9 6.7 36 8.1 S 15 24 8 13 1021.0 1021.0 0.0
21/12:30pm 22.4 18.3 6.2 35 8.2 S 17 24 9 13 1021.2 1021.2 0.0
21/12:00pm 21.7 18.4 7.9 41 7.2 SSE 15 24 8 13 1021.7 1021.7 0.0
21/11:30am 21.6 17.9 7.8 41 7.2 S 17 24 9 13 1022.2 1022.2 0.0
21/11:00am 21.4 17.5 7.3 40 7.2 S 17 26 9 14 1022.6 1022.6 0.0
21/10:30am 21.0 18.1 9.6 48 6.1 S 15 20 8 11 1022.9 1022.9 0.0
21/10:00am 20.3 16.9 9.2 49 5.9 S 17 26 9 14 1023.2 1023.2 0.0
21/09:30am 19.1 15.8 9.6 54 5.0 S 17 28 9 15 1023.1 1023.1 0.0
21/09:00am 17.8 14.9 9.7 59 4.3 S 15 22 8 12 1023.3 1023.3 0.0
21/08:30am 16.6 14.2 10.0 65 3.5 SSW 13 20 7 11 1023.1 1023.1 0.0
21/08:00am 15.0 13.0 10.2 73 2.5 SSW 11 17 6 9 1022.6 1022.6 0.0
21/07:30am 13.0 11.3 10.0 82 1.5 SW 9 11 5 6 1022.4 1022.4 0.0
21/07:00am 12.1 10.7 9.5 84 1.3 SW 7 9 4 5 1022.0 1022.0 0.0
21/06:30am 12.2 10.8 9.4 83 1.4 SW 7 9 4 5 1021.8 1021.8 0.0
21/06:00am 12.3 10.6 9.7 84 1.3 SW 9 13 5 7 1021.3 1021.3 0.0
21/05:30am 11.7 10.4 9.8 88 1.0 SSW 7 9 4 5 1021.1 1021.1 0.0
21/05:00am 11.5 10.1 9.4 87 1.1 SSW 7 9 4 5 1020.9 1020.9 0.0
21/04:30am 12.3 11.2 10.0 86 1.2 SSW 6 9 3 5 1020.8 1020.8 0.0
21/04:00am 13.4 12.4 10.2 81 1.7 SSW 6 9 3 5 1020.9 1020.9 0.0
21/03:30am 13.6 12.4 10.4 81 1.7 SSW 7 11 4 6 1020.9 1020.9 0.0
21/03:00am 13.9 12.8 10.7 81 1.7 SSW 7 11 4 6 1020.9 1020.9 0.0
21/02:30am 14.2 13.1 10.6 79 1.9 SSW 7 11 4 6 1021.1 1021.1 0.0
21/02:00am 14.5 13.0 10.7 78 2.0 SSW 9 13 5 7 1021.2 1021.2 0.0
21/01:30am 14.4 13.0 10.8 79 1.9 SSW 9 15 5 8 1021.4 1021.4 0.0
21/01:00am 14.1 13.0 10.5 79 1.9 SW 7 11 4 6 1021.6 1021.6 0.0
21/12:30am 13.9 12.4 10.5 80 1.8 SW 9 13 5 7 1021.7 1021.7 0.0
21/12:00am 13.9 12.7 10.3 79 1.9 SW 7 9 4 5 1021.6 1021.6 0.0
 
Date/Time
EST
Temp
°C
App
Temp
°C
Dew
Point
°C
Rel
Hum
%
Delta-T
°C
Wind Press
QNH
hPa
Press
MSL
hPa
Rain since
9am
mm
Dir  Spd
km/h
Gust
km/h
Spd
kts
Gust
kts
20/11:30pm 14.3 13.2 10.5 78 2.0 SSW 7 11 4 6 1021.7 1021.7 0.0
20/11:00pm 14.2 12.9 10.0 76 2.2 SW 7 9 4 5 1021.7 1021.7 0.0
20/10:30pm 15.0 13.3 10.0 72 2.6 SSW 9 13 5 7 1021.6 1021.6 0.0
20/10:00pm 15.4 13.8 10.2 71 2.7 S 9 13 5 7 1021.6 1021.6 0.0
20/09:30pm 16.1 14.2 10.4 69 3.0 S 11 17 6 9 1021.7 1021.7 0.0
20/09:00pm 16.1 14.2 10.4 69 3.0 S 11 15 6 8 1021.8 1021.8 0.0
20/08:30pm 16.3 14.3 10.2 67 3.2 S 11 15 6 8 1021.8 1021.8 0.0
20/08:00pm 16.9 14.0 11.0 68 3.2 SSE 17 22 9 12 1021.6 1021.6 0.0
20/07:30pm 15.9 13.5 11.3 74 2.5 SE 15 19 8 10 1021.2 1021.2 0.0
20/07:13pm 17.2 15.1 11.2 68 3.2 SSE 13 19 7 10 1021.0 1021.0 0.0
20/07:01pm 17.6 15.9 11.2 66 3.5 S 11 17 6 9 1021.0 1021.0 0.0
20/07:00pm 17.7 16.0 11.3 66 3.5 S 11 17 6 9 1020.9 1020.9 0.0
20/06:30pm 18.2 16.3 11.7 66 3.6 SSE 13 19 7 10 1020.7 1020.7 0.0
20/06:00pm 18.0 16.3 12.5 70 3.1 SSE 13 17 7 9 1020.2 1020.2 0.0
20/05:30pm 19.3 17.5 12.1 63 4.0 SSE 13 17 7 9 1019.9 1019.9 0.0
20/05:00pm 20.6 18.7 11.8 57 4.9 SSE 13 19 7 10 1019.6 1019.6 0.0
20/04:30pm 21.9 19.2 11.6 52 5.8 SSE 17 24 9 13 1019.2 1019.1 0.0
20/04:00pm 22.9 19.5 11.3 48 6.5 SSE 20 30 11 16 1019.1 1019.0 0.0
20/03:30pm 22.0 18.3 11.4 51 5.9 SE 22 32 12 17 1019.0 1018.9 0.0
20/03:00pm 23.5 20.2 10.9 45 7.0 SSE 19 30 10 16 1018.9 1018.8 0.0
20/02:30pm 22.8 18.9 10.9 47 6.6 SSE 22 35 12 19 1019.0 1018.9 0.0
20/02:00pm 23.4 20.2 11.8 48 6.5 SSE 20 28 11 15 1019.1 1019.0 0.0
20/01:30pm 24.9 22.3 13.1 48 6.9 SSE 19 24 10 13 1019.3 1019.2 0.0

Other Formats:

Comma delimited format used in spreadsheet applications
http://www.bom.gov.au/fwo/IDQ60801/IDQ60801.94387.axf

JavaScript Object Notation format (JSON) in row-major order
http://www.bom.gov.au/fwo/IDQ60801/IDQ60801.94387.json